X  CloseMetar Aviation Weather Data     YMAV Avalon Airport

Temperature

17°C Temperature

10°C Dewpoint

64% Humidity



Wind

13 KM/H

 8 MPH

 4 M/S

 7 KTS



130°
South East
Current Conditions

Mostly Cloudy Mostly Cloudy
Pressure 1015.92 (hPa) - 30 (in)
Visibility 6.2 (mi) - 10 (km)
Airport
Airport-code YMAV

Location Avalon Airport 44 (km)

Metar:
YMAV 210130Z AUTO 13007KT 9999 // BKN047 17/10 Q1016 RF00.0/000.0

Time: 21-10-2020 12:30